createdAt,value
2022-10-30T06:15:41.374Z,179.79
2022-10-30T06:25:41.680Z,178.40
2022-10-30T06:35:41.392Z,179.91
2022-10-30T06:45:41.278Z,179.29
2022-10-30T06:55:41.253Z,180.00
2022-10-30T07:05:41.375Z,178.91
2022-10-30T07:25:41.532Z,180.00
2022-10-30T07:35:41.378Z,171.20
2022-10-30T07:45:41.312Z,157.65
2022-10-30T07:55:41.355Z,142.80
2022-10-30T08:05:41.348Z,173.24
2022-10-30T08:15:41.435Z,167.93
2022-10-30T08:25:41.378Z,161.95
2022-10-30T08:35:41.405Z,178.61
2022-10-30T08:45:41.591Z,178.81
2022-10-30T08:55:41.782Z,179.93
2022-10-30T09:05:41.815Z,179.87
2022-10-30T09:15:41.760Z,179.17
2022-10-30T09:25:41.750Z,180.00
2022-10-30T09:35:41.865Z,178.99
2022-10-30T09:45:41.830Z,178.29
2022-10-30T09:55:41.854Z,179.34
2022-10-30T10:05:41.812Z,179.79
2022-10-30T10:15:41.758Z,179.28
2022-10-30T10:25:41.894Z,178.79
2022-10-30T10:35:41.785Z,181.27
2022-10-30T10:45:41.789Z,352.85
2022-10-30T10:55:42.611Z,177.76
2022-10-30T11:05:41.968Z,197.62
2022-10-30T11:15:41.905Z,177.02
2022-10-30T11:25:41.977Z,179.77
2022-10-30T11:35:42.166Z,169.36
2022-10-30T11:45:42.045Z,167.13
2022-10-30T11:55:41.983Z,163.38
2022-10-30T12:05:44.879Z,152.42
2022-10-30T12:15:42.104Z,153.04
2022-10-30T12:25:41.927Z,157.28
2022-10-30T12:35:41.980Z,150.49
2022-10-30T12:45:42.133Z,152.31
2022-10-30T12:55:42.143Z,152.91
2022-10-30T13:05:41.978Z,171.04
2022-10-30T13:15:42.143Z,166.42
2022-10-30T13:25:42.055Z,171.68
2022-10-30T13:35:41.876Z,178.91
2022-10-30T13:45:42.043Z,174.34
2022-10-30T13:55:42.095Z,170.30
2022-10-30T14:05:42.212Z,160.96
2022-10-30T14:15:42.171Z,180.00
2022-10-30T14:25:42.065Z,180.00
2022-10-30T14:35:42.165Z,180.00
2022-10-30T14:45:42.240Z,180.00
2022-10-30T14:55:42.182Z,182.04
2022-10-30T15:05:42.119Z,189.10
2022-10-30T15:15:42.225Z,160.50
2022-10-30T15:25:42.213Z,136.66
2022-10-30T15:35:42.329Z,104.82
2022-10-30T15:45:42.139Z,45.38
2022-10-30T15:55:42.207Z,120.80
2022-10-30T16:05:43.209Z,175.98
2022-10-30T16:15:42.089Z,180.00
2022-10-30T16:25:47.002Z,220.58
2022-10-30T16:35:42.299Z,171.89
2022-10-30T16:45:42.227Z,165.34
2022-10-30T16:55:42.200Z,180.00
2022-10-30T17:05:42.334Z,95.45
2022-10-30T17:15:42.204Z,90.00
2022-10-30T17:25:42.276Z,90.00
2022-10-30T17:35:42.281Z,90.00
2022-10-30T17:45:42.249Z,90.00
2022-10-30T17:55:42.316Z,90.00
2022-10-30T18:05:42.385Z,90.00
2022-10-30T18:15:42.295Z,119.97
2022-10-30T18:25:42.222Z,135.00
2022-10-30T18:35:42.374Z,135.00
2022-10-30T18:45:42.288Z,124.53
2022-10-30T18:55:42.396Z,90.00
2022-10-30T19:05:42.787Z,90.00
2022-10-30T19:15:42.756Z,52.15
